createdAt,value
2022-11-29T00:01:52.587Z,400.78
2022-11-29T00:06:59.631Z,400.56
2022-11-29T00:12:06.831Z,400.64
2022-11-29T00:17:14.086Z,400.92
2022-11-29T00:22:21.267Z,400.94
2022-11-29T00:27:28.475Z,400.63
2022-11-29T00:32:35.827Z,401.66
2022-11-29T00:37:42.841Z,401.62
2022-11-29T00:42:49.997Z,401.79
2022-11-29T00:47:57.207Z,402.04
2022-11-29T00:53:04.391Z,401.71
2022-11-29T00:58:11.596Z,401.15
2022-11-29T01:03:18.835Z,401.53
2022-11-29T01:08:26.009Z,401.67
2022-11-29T01:13:33.190Z,401.25
2022-11-29T01:18:40.449Z,401.01
2022-11-29T01:23:47.594Z,400.71
2022-11-29T01:28:54.825Z,401.45
2022-11-29T01:34:02.061Z,401.42
2022-11-29T01:39:09.273Z,401.39
2022-11-29T01:44:16.466Z,401.72
2022-11-29T01:49:23.732Z,401.93
2022-11-29T01:54:30.971Z,401.52
2022-11-29T01:59:38.167Z,401.76
2022-11-29T02:04:45.578Z,402.18
2022-11-29T02:09:52.560Z,401.62
2022-11-29T02:14:59.812Z,401.81
2022-11-29T02:20:07.015Z,402.06
2022-11-29T02:25:14.214Z,402.32
2022-11-29T02:30:21.400Z,402.32
2022-11-29T02:35:28.625Z,402.40
2022-11-29T02:40:35.810Z,402.28
2022-11-29T02:45:43.094Z,402.67
2022-11-29T02:50:50.195Z,402.68
2022-11-29T02:55:57.317Z,402.86
2022-11-29T03:01:04.614Z,402.84
2022-11-29T03:06:11.741Z,402.64
2022-11-29T03:11:18.935Z,402.33
2022-11-29T03:16:26.130Z,402.22
2022-11-29T03:21:33.372Z,402.14
2022-11-29T03:26:40.539Z,401.95
2022-11-29T03:31:47.744Z,402.18
2022-11-29T03:36:54.995Z,402.12
2022-11-29T03:42:02.158Z,402.41
2022-11-29T03:47:09.386Z,402.09
2022-11-29T03:52:16.678Z,401.93
2022-11-29T03:57:23.808Z,401.32
2022-11-29T04:02:31.091Z,401.63
2022-11-29T04:07:38.325Z,402.00
2022-11-29T04:12:45.407Z,402.13
2022-11-29T04:17:52.682Z,402.28
2022-11-29T04:22:59.935Z,401.56
2022-11-29T04:28:07.085Z,401.23
2022-11-29T04:33:14.336Z,401.11
2022-11-29T04:38:21.526Z,401.44
2022-11-29T04:43:28.713Z,401.05
2022-11-29T04:48:35.914Z,400.70
2022-11-29T04:53:43.129Z,400.46
2022-11-29T04:58:50.333Z,399.99
2022-11-29T05:03:57.562Z,399.57
2022-11-29T05:09:04.770Z,399.44
2022-11-29T05:14:11.938Z,399.07
2022-11-29T05:19:19.174Z,399.19
2022-11-29T05:24:26.399Z,398.85
2022-11-29T05:29:33.575Z,398.65
2022-11-29T05:34:40.784Z,398.52
2022-11-29T05:39:47.979Z,398.15
2022-11-29T05:44:55.213Z,398.50
2022-11-29T05:50:02.397Z,398.05
2022-11-29T05:55:09.623Z,397.83
2022-11-29T06:00:16.791Z,397.71
2022-11-29T06:05:24.014Z,397.33
2022-11-29T06:10:31.204Z,396.95
2022-11-29T06:15:38.391Z,397.22
2022-11-29T06:20:45.607Z,396.55
2022-11-29T06:25:53.092Z,396.71
2022-11-29T06:31:00.318Z,396.45
2022-11-29T06:36:07.418Z,396.02
2022-11-29T06:41:14.675Z,395.92
2022-11-29T06:46:21.882Z,395.24
2022-11-29T06:51:29.047Z,394.85
2022-11-29T06:56:36.260Z,394.85
2022-11-29T07:01:43.533Z,394.59
2022-11-29T07:06:50.651Z,394.29
2022-11-29T07:11:57.877Z,394.27
2022-11-29T07:17:05.079Z,393.66
2022-11-29T07:22:12.246Z,393.67
2022-11-29T07:27:19.491Z,393.03
2022-11-29T07:32:26.672Z,393.20
2022-11-29T07:37:33.813Z,392.86
2022-11-29T07:42:41.066Z,392.78
2022-11-29T07:47:48.298Z,392.88
2022-11-29T07:52:55.496Z,392.73
2022-11-29T07:58:02.723Z,391.91
2022-11-29T08:03:09.905Z,391.93
2022-11-29T08:08:17.099Z,391.66
2022-11-29T08:13:24.342Z,391.30
2022-11-29T08:18:31.505Z,390.99
2022-11-29T08:23:38.728Z,390.79
2022-11-29T08:28:45.956Z,390.48
2022-11-29T08:33:53.074Z,390.40
2022-11-29T08:39:06.097Z,390.08
2022-11-29T08:44:07.425Z,389.93
2022-11-29T08:49:14.559Z,389.64
2022-11-29T08:54:21.726Z,389.60
2022-11-29T08:59:28.924Z,389.84
2022-11-29T09:04:36.056Z,389.87
2022-11-29T09:09:43.213Z,389.70
2022-11-29T09:14:50.496Z,389.23
2022-11-29T09:19:57.698Z,389.05
2022-11-29T09:25:04.874Z,388.35
2022-11-29T09:30:12.081Z,387.90
2022-11-29T09:35:19.249Z,387.72
2022-11-29T09:40:26.482Z,387.73
2022-11-29T09:45:33.757Z,387.23
2022-11-29T09:50:40.792Z,387.17
2022-11-29T09:55:47.993Z,387.03
2022-11-29T10:00:55.334Z,387.28
2022-11-29T10:06:02.436Z,386.94
2022-11-29T10:11:09.674Z,387.21
2022-11-29T10:16:16.917Z,387.30
2022-11-29T10:21:24.082Z,387.49
2022-11-29T10:26:35.130Z,387.60
2022-11-29T10:31:38.623Z,387.70
2022-11-29T10:36:45.850Z,387.66
2022-11-29T10:41:53.099Z,388.04
2022-11-29T10:47:00.328Z,388.11
2022-11-29T10:52:07.531Z,388.26
2022-11-29T10:57:14.735Z,388.33
2022-11-29T11:02:22.011Z,388.13
2022-11-29T11:07:29.347Z,388.27
2022-11-29T11:12:36.375Z,388.22
2022-11-29T11:17:43.626Z,388.27
2022-11-29T11:22:50.861Z,387.68
2022-11-29T11:27:58.059Z,388.03
2022-11-29T11:33:05.316Z,387.87
2022-11-29T11:38:12.486Z,388.18
2022-11-29T11:43:19.714Z,387.90
2022-11-29T11:48:26.952Z,387.83
2022-11-29T11:53:34.151Z,387.49
2022-11-29T11:58:41.323Z,387.43
2022-11-29T12:03:48.548Z,387.46
2022-11-29T12:08:55.744Z,387.26
2022-11-29T12:14:02.957Z,387.09
2022-11-29T12:19:10.182Z,387.24
2022-11-29T12:24:17.362Z,386.69
2022-11-29T12:29:24.558Z,386.50
2022-11-29T12:34:31.776Z,386.47
2022-11-29T12:39:39.019Z,386.44
2022-11-29T12:44:46.705Z,386.40
2022-11-29T12:49:53.592Z,386.44
2022-11-29T12:55:00.827Z,386.36
2022-11-29T13:00:08.001Z,386.45
2022-11-29T13:05:15.261Z,386.18
2022-11-29T13:10:22.421Z,386.23
2022-11-29T13:15:29.644Z,385.99
2022-11-29T13:20:36.876Z,385.42
2022-11-29T13:25:44.113Z,384.93
2022-11-29T13:30:51.407Z,384.48
2022-11-29T13:35:58.559Z,384.39
2022-11-29T13:41:05.775Z,384.20
2022-11-29T13:46:12.952Z,384.60
2022-11-29T13:51:20.276Z,383.97
2022-11-29T13:56:27.461Z,384.03
2022-11-29T14:01:34.730Z,383.81
2022-11-29T14:06:41.962Z,383.78
2022-11-29T14:11:49.088Z,383.61
2022-11-29T14:16:56.285Z,383.42
2022-11-29T14:22:03.541Z,383.16
2022-11-29T14:27:10.648Z,383.10
2022-11-29T14:32:17.883Z,383.22
2022-11-29T14:37:25.142Z,382.46
2022-11-29T14:42:32.372Z,382.79
2022-11-29T14:47:39.524Z,382.69
2022-11-29T14:52:46.725Z,382.21
2022-11-29T14:57:53.919Z,382.38
2022-11-29T15:03:01.108Z,382.44
2022-11-29T15:08:08.342Z,382.16
2022-11-29T15:13:15.528Z,381.76
2022-11-29T15:18:22.770Z,381.53
2022-11-29T15:23:29.989Z,381.60
2022-11-29T15:28:37.135Z,381.45
2022-11-29T15:33:44.362Z,381.25
2022-11-29T15:38:51.607Z,381.36
2022-11-29T15:43:58.746Z,380.70
2022-11-29T15:49:05.968Z,380.35
2022-11-29T15:54:13.773Z,379.90
2022-11-29T15:59:20.358Z,379.87
2022-11-29T16:04:27.509Z,379.90
2022-11-29T16:09:34.743Z,379.53
2022-11-29T16:14:42.176Z,379.50
2022-11-29T16:19:49.786Z,379.60
2022-11-29T16:24:57.127Z,379.54
2022-11-29T16:30:04.615Z,379.30
2022-11-29T16:35:12.067Z,378.96
2022-11-29T16:40:19.302Z,378.27
2022-11-29T16:45:26.920Z,377.74
2022-11-29T16:50:34.214Z,377.99
2022-11-29T16:55:42.705Z,377.01
2022-11-29T17:00:50.136Z,377.38
2022-11-29T17:05:57.194Z,377.34
2022-11-29T17:11:04.732Z,377.06
2022-11-29T17:16:12.085Z,376.96
2022-11-29T17:21:19.328Z,376.60
2022-11-29T17:26:26.860Z,377.08
2022-11-29T17:31:34.494Z,376.63
2022-11-29T17:36:41.883Z,375.78
2022-11-29T17:41:49.148Z,375.21
2022-11-29T17:46:56.673Z,375.04
2022-11-29T17:52:04.086Z,374.92
2022-11-29T17:57:11.343Z,374.49
2022-11-29T18:02:18.892Z,374.06
2022-11-29T18:07:26.483Z,374.02
2022-11-29T18:12:33.955Z,373.49
2022-11-29T18:17:41.304Z,373.24
2022-11-29T18:22:49.880Z,373.58
2022-11-29T18:27:57.623Z,373.00
2022-11-29T18:33:05.315Z,373.22
2022-11-29T18:38:16.018Z,373.50
2022-11-29T18:43:20.672Z,373.14
2022-11-29T18:48:28.249Z,373.34
2022-11-29T18:53:35.864Z,373.31
2022-11-29T18:58:43.509Z,373.13
2022-11-29T19:03:50.993Z,372.85
2022-11-29T19:08:58.608Z,372.39
2022-11-29T19:14:05.886Z,371.85
2022-11-29T19:19:13.343Z,372.24
2022-11-29T19:24:20.750Z,372.50
2022-11-29T19:29:28.369Z,372.55
2022-11-29T19:34:36.065Z,372.39
2022-11-29T19:39:43.956Z,372.56
2022-11-29T19:50:02.337Z,372.52
2022-11-29T19:55:06.122Z,372.16
2022-11-29T20:00:13.855Z,372.00
2022-11-29T20:05:22.471Z,372.11
2022-11-29T20:10:30.188Z,371.49
2022-11-29T20:15:38.899Z,371.33
2022-11-29T20:20:46.494Z,371.69
2022-11-29T20:25:54.156Z,371.35
2022-11-29T20:31:01.959Z,371.20
2022-11-29T20:36:09.492Z,370.86
2022-11-29T20:41:17.100Z,370.31
2022-11-29T20:46:24.789Z,370.51
2022-11-29T20:51:32.535Z,370.21
2022-11-29T20:56:39.871Z,370.13
2022-11-29T21:01:47.434Z,369.78
2022-11-29T21:06:54.772Z,369.48
2022-11-29T21:12:01.978Z,369.44
2022-11-29T21:17:09.182Z,369.15
2022-11-29T21:22:16.391Z,369.45
2022-11-29T21:27:23.907Z,369.48
2022-11-29T21:32:31.530Z,369.48
2022-11-29T21:37:39.118Z,369.18
2022-11-29T21:42:46.443Z,369.04
2022-11-29T21:47:53.668Z,368.98
2022-11-29T21:53:00.896Z,369.00
2022-11-29T21:58:08.140Z,369.30
2022-11-29T22:03:15.388Z,368.90
2022-11-29T22:08:22.523Z,368.91
2022-11-29T22:13:29.699Z,369.50
2022-11-29T22:18:36.886Z,370.13
2022-11-29T22:23:44.003Z,370.48
2022-11-29T22:28:51.174Z,370.65
2022-11-29T22:33:58.403Z,370.28
2022-11-29T22:39:05.620Z,370.32
2022-11-29T22:44:12.776Z,370.93
2022-11-29T22:49:20.013Z,370.74
2022-11-29T22:54:27.203Z,370.81
2022-11-29T22:59:34.369Z,371.21
2022-11-29T23:04:41.701Z,371.25
2022-11-29T23:09:48.862Z,370.99
2022-11-29T23:14:56.966Z,370.49
2022-11-29T23:20:03.300Z,370.82
2022-11-29T23:25:10.440Z,370.63
2022-11-29T23:30:17.623Z,370.71
2022-11-29T23:35:24.895Z,370.40
2022-11-29T23:40:32.023Z,370.85
2022-11-29T23:45:39.343Z,370.85
2022-11-29T23:50:46.525Z,371.15
2022-11-29T23:55:53.682Z,371.40
